Time;durP1;ratioP1;P1;durP2;ratioP2;P2;SDS_P1;SDS_P2;PMS_P1;PMS_P2;Temp;Humidity;BMP_temperature;BMP_pressure;BME280_temperature;BME280_humidity;BME280_pressure;Samples;Min_cycle;Max_cycle;Signal;HPM_P1;HPM_P2
2023/03/16 00:01:04;;;;;;;21.13;8.18;;;;;;;3.92;100.00;101610.63;5072742;28;20029;-69
2023/03/16 00:03:30;;;;;;;20.73;8.38;;;;;;;3.91;100.00;101611.44;5072943;28;20038;-69
2023/03/16 00:05:55;;;;;;;20.00;8.43;;;;;;;3.91;100.00;101608.81;5073172;28;20450;-69
2023/03/16 00:08:21;;;;;;;20.38;8.50;;;;;;;3.89;100.00;101605.22;5073174;28;20036;-68
2023/03/16 00:10:47;;;;;;;20.27;8.38;;;;;;;3.91;100.00;101609.69;5073254;28;20025;-68
2023/03/16 00:13:14;;;;;;;21.10;8.25;;;;;;;3.89;100.00;101602.59;5073036;28;20082;-68
2023/03/16 00:15:40;;;;;;;19.70;8.15;;;;;;;3.88;100.00;101596.50;5072240;28;20025;-69
2023/03/16 00:18:05;;;;;;;21.05;8.52;;;;;;;3.88;100.00;101600.84;5073386;28;20029;-69
2023/03/16 00:20:32;;;;;;;20.13;8.50;;;;;;;3.87;100.00;101597.31;5073117;28;20379;-68
2023/03/16 00:22:57;;;;;;;21.45;8.57;;;;;;;3.88;100.00;101593.88;5072950;28;20046;-68
2023/03/16 00:25:23;;;;;;;20.45;8.25;;;;;;;3.87;100.00;101585.97;5073148;28;20107;-68
2023/03/16 00:27:48;;;;;;;21.30;8.77;;;;;;;3.85;100.00;101588.53;5072460;28;20475;-69
2023/03/16 00:30:13;;;;;;;20.38;8.38;;;;;;;3.86;100.00;101586.78;5074814;28;20379;-68
2023/03/16 00:32:39;;;;;;;20.80;8.52;;;;;;;3.84;100.00;101579.78;5075824;28;20033;-68
2023/03/16 00:35:05;;;;;;;20.23;8.77;;;;;;;3.86;100.00;101576.31;5076553;28;20048;-68
2023/03/16 00:37:35;;;;;;;21.10;8.30;;;;;;;3.80;100.00;101577.84;5077273;28;20024;-69
2023/03/16 00:40:01;;;;;;;20.45;8.55;;;;;;;3.80;100.00;101572.63;5073284;28;20028;-69
2023/03/16 00:42:28;;;;;;;21.02;8.32;;;;;;;3.79;100.00;101577.78;5076310;28;20048;-68
2023/03/16 00:44:58;;;;;;;20.13;8.57;;;;;;;3.78;100.00;101576.88;5076606;28;20093;-68
2023/03/16 00:47:31;;;;;;;21.13;8.77;;;;;;;3.78;100.00;101569.03;5076692;28;20028;-68
2023/03/16 00:49:58;;;;;;;20.55;8.60;;;;;;;3.79;100.00;101565.59;5076765;28;20107;-68
2023/03/16 00:52:26;;;;;;;20.10;8.73;;;;;;;3.79;100.00;101562.97;5076516;28;20029;-68
2023/03/16 00:54:52;;;;;;;20.70;8.95;;;;;;;3.80;100.00;101569.09;5076525;28;20080;-68
2023/03/16 00:57:21;;;;;;;20.42;8.45;;;;;;;3.80;100.00;101562.16;5075784;28;20056;-69
2023/03/16 00:59:47;;;;;;;21.42;9.20;;;;;;;3.79;100.00;101555.13;5076514;28;20521;-68
2023/03/16 01:02:15;;;;;;;20.45;8.65;;;;;;;3.77;100.00;101559.41;5076284;28;20037;-69
2023/03/16 01:04:41;;;;;;;20.27;8.57;;;;;;;3.77;100.00;101548.03;5076251;28;20044;-77
2023/03/16 01:07:11;;;;;;;20.70;8.63;;;;;;;3.76;100.00;101541.94;5076240;28;20039;-71
2023/03/16 01:09:37;;;;;;;20.85;8.48;;;;;;;3.77;100.00;101537.59;5076308;28;20059;-72
2023/03/16 01:12:05;;;;;;;19.95;8.38;;;;;;;3.77;100.00;101533.25;5075805;28;20024;-69
2023/03/16 01:14:31;;;;;;;21.40;8.60;;;;;;;3.76;100.00;101536.69;5076199;28;20547;-69
2023/03/16 01:16:57;;;;;;;20.13;8.25;;;;;;;3.76;100.00;101531.47;5076242;28;20418;-72
2023/03/16 01:19:22;;;;;;;21.08;8.20;;;;;;;3.76;100.00;101523.63;5076215;28;20032;-68
2023/03/16 01:21:47;;;;;;;20.25;8.73;;;;;;;3.75;100.00;101519.22;5075878;28;20056;-73
2023/03/16 01:24:13;;;;;;;20.30;8.70;;;;;;;3.76;100.00;101507.94;5076066;28;20129;-78
2023/03/16 01:26:38;;;;;;;20.80;8.32;;;;;;;3.76;100.00;101512.28;5075577;28;20028;-69
2023/03/16 01:29:04;;;;;;;20.15;8.05;;;;;;;3.79;100.00;101510.69;5075831;28;20051;-69
2023/03/16 01:31:30;;;;;;;21.27;8.52;;;;;;;3.78;100.00;101498.41;5076127;28;20097;-69
2023/03/16 01:33:56;;;;;;;20.25;8.27;;;;;;;3.79;100.00;101496.72;5075968;28;20036;-76
2023/03/16 01:36:22;;;;;;;20.33;8.40;;;;;;;3.81;100.00;101497.66;5075751;28;20033;-74
2023/03/16 01:38:47;;;;;;;19.63;8.30;;;;;;;3.82;100.00;101508.19;5075194;28;20047;-72
2023/03/16 01:41:13;;;;;;;20.77;8.63;;;;;;;3.81;100.00;101502.88;5075329;28;20106;-68
2023/03/16 01:43:40;;;;;;;20.85;8.27;;;;;;;3.80;100.00;101495.88;5075592;28;20063;-68
2023/03/16 01:46:05;;;;;;;19.58;7.88;;;;;;;3.76;100.00;101494.84;5075873;28;20032;-68
2023/03/16 01:48:45;;;;;;;19.35;7.93;;;;;;;3.75;100.00;101500.91;5075489;28;20028;-76
2023/03/16 01:51:20;;;;;;;20.02;8.00;;;;;;;3.75;100.00;101494.78;5072801;28;20383;-70
2023/03/16 01:53:48;;;;;;;20.80;8.02;;;;;;;3.73;100.00;101488.59;5075667;28;20417;-69
2023/03/16 01:56:22;;;;;;;20.52;8.27;;;;;;;3.75;100.00;101492.19;5074782;28;20028;-70
2023/03/16 01:58:50;;;;;;;20.52;8.20;;;;;;;3.74;100.00;101491.28;5075761;28;20439;-68
2023/03/16 02:01:16;;;;;;;19.65;7.97;;;;;;;3.75;100.00;101494.78;5074951;28;20021;-68
2023/03/16 02:03:43;;;;;;;19.83;7.95;;;;;;;3.75;100.00;101495.66;5075167;28;20028;-69
2023/03/16 02:06:14;;;;;;;20.35;7.75;;;;;;;3.77;100.00;101485.28;5075346;28;20048;-69
2023/03/16 02:08:41;;;;;;;20.67;8.05;;;;;;;3.81;100.00;101475.00;5075269;28;20056;-69
2023/03/16 02:11:07;;;;;;;20.25;7.78;;;;;;;3.81;100.00;101477.63;5074607;28;20051;-70
2023/03/16 02:13:35;;;;;;;20.23;7.95;;;;;;;3.82;100.00;101473.28;5074996;28;20024;-69
2023/03/16 02:16:04;;;;;;;20.95;8.10;;;;;;;3.82;100.00;101473.28;5075116;28;20074;-68
2023/03/16 02:18:30;;;;;;;20.95;8.23;;;;;;;3.77;100.00;101470.50;5075205;28;20033;-68
2023/03/16 02:21:21;;;;;;;19.60;8.18;;;;;;;3.70;100.00;101473.69;5074508;28;20379;-68
2023/03/16 02:23:49;;;;;;;20.63;8.15;;;;;;;3.60;100.00;101474.13;5073150;28;20032;-72
2023/03/16 02:26:28;;;;;;;20.83;8.48;;;;;;;3.56;100.00;101469.59;5074866;28;20111;-68
2023/03/16 02:29:12;;;;;;;19.85;8.20;;;;;;;3.42;100.00;101474.19;5073984;28;20387;-69
2023/03/16 02:31:38;;;;;;;21.05;8.80;;;;;;;3.29;100.00;101465.84;5070618;28;20033;-69
2023/03/16 02:34:03;;;;;;;20.90;8.23;;;;;;;3.21;100.00;101469.81;5074517;28;20487;-68
2023/03/16 02:36:30;;;;;;;20.80;8.43;;;;;;;3.16;100.00;101463.50;5074646;28;20063;-68
2023/03/16 02:38:56;;;;;;;20.95;8.88;;;;;;;3.16;100.00;101462.59;5074647;28;20025;-68
2023/03/16 02:41:21;;;;;;;21.17;8.73;;;;;;;3.20;100.00;101467.13;5074366;28;20031;-68
2023/03/16 02:43:54;;;;;;;21.35;8.63;;;;;;;3.17;100.00;101467.88;5074110;28;20033;-68
2023/03/16 02:46:23;;;;;;;20.83;8.65;;;;;;;3.14;100.00;101468.63;5073545;28;20103;-68
2023/03/16 02:49:15;;;;;;;21.90;8.73;;;;;;;3.20;100.00;101469.75;5074314;28;20108;-68
2023/03/16 02:51:41;;;;;;;20.45;8.27;;;;;;;3.22;100.00;101462.88;5071276;28;20039;-70
2023/03/16 02:54:07;;;;;;;20.55;8.60;;;;;;;3.25;100.00;101458.69;5073598;28;20269;-68
2023/03/16 02:56:32;;;;;;;20.58;8.02;;;;;;;3.29;100.00;101454.47;5070166;28;20036;-68
2023/03/16 02:58:57;;;;;;;20.70;8.40;;;;;;;3.30;100.00;101446.69;5073888;28;20056;-68
2023/03/16 03:01:23;;;;;;;20.13;8.30;;;;;;;3.31;100.00;101443.25;5073329;28;20025;-69
2023/03/16 03:03:48;;;;;;;21.20;8.10;;;;;;;3.36;100.00;101446.06;5074040;28;20123;-68
2023/03/16 03:06:14;;;;;;;21.27;8.57;;;;;;;3.39;100.00;101446.19;5073892;28;20050;-68
2023/03/16 03:08:39;;;;;;;20.50;8.20;;;;;;;3.44;100.00;101446.41;5074009;28;20024;-68
2023/03/16 03:11:05;;;;;;;20.40;7.93;;;;;;;3.46;100.00;101443.03;5073831;28;20029;-68
2023/03/16 03:13:30;;;;;;;20.88;8.30;;;;;;;3.49;100.00;101451.03;5073832;28;20119;-68
2023/03/16 03:15:56;;;;;;;20.55;7.90;;;;;;;3.52;100.00;101441.50;5073216;28;20036;-68
2023/03/16 03:18:24;;;;;;;19.77;8.00;;;;;;;3.54;100.00;101446.00;5073784;28;20483;-68
2023/03/16 03:20:49;;;;;;;20.67;8.20;;;;;;;3.52;100.00;101438.91;5073819;28;20039;-68
2023/03/16 03:23:15;;;;;;;20.27;8.20;;;;;;;3.53;100.00;101435.47;5073727;28;20028;-69
2023/03/16 03:25:41;;;;;;;20.42;8.07;;;;;;;3.51;100.00;101439.72;5073652;28;20028;-68
2023/03/16 03:28:07;;;;;;;19.33;7.80;;;;;;;3.51;100.00;101445.84;5073440;28;20027;-68
2023/03/16 03:30:34;;;;;;;19.95;7.80;;;;;;;3.51;100.00;101432.78;5069368;28;20021;-68
2023/03/16 03:33:00;;;;;;;20.58;8.10;;;;;;;3.47;100.00;101442.19;5072185;28;20024;-68
2023/03/16 03:35:26;;;;;;;19.38;8.00;;;;;;;3.48;100.00;101433.53;5073599;28;20471;-69
2023/03/16 03:37:51;;;;;;;22.17;8.10;;;;;;;3.47;100.00;101429.13;5074013;28;20039;-68
2023/03/16 03:40:18;;;;;;;19.85;7.88;;;;;;;3.46;100.00;101431.69;5073417;28;20083;-68
2023/03/16 03:42:43;;;;;;;19.73;7.72;;;;;;;3.49;100.00;101430.13;5072813;28;20619;-68
2023/03/16 03:45:11;;;;;;;19.85;7.53;;;;;;;3.51;100.00;101424.94;5073613;28;20047;-69
2023/03/16 03:47:37;;;;;;;19.80;7.80;;;;;;;3.52;100.00;101420.59;5073146;28;20035;-68
2023/03/16 03:50:03;;;;;;;20.17;7.70;;;;;;;3.54;100.00;101424.16;5073332;28;20037;-68
2023/03/16 03:52:28;;;;;;;20.00;7.60;;;;;;;3.56;100.00;101432.97;5073466;28;20036;-68
2023/03/16 03:54:53;;;;;;;20.02;7.38;;;;;;;3.56;100.00;101426.00;5073288;28;20087;-69
2023/03/16 03:57:19;;;;;;;19.67;7.35;;;;;;;3.59;100.00;101431.38;5072496;28;20029;-69
2023/03/16 03:59:44;;;;;;;19.63;7.53;;;;;;;3.60;100.00;101430.56;5072390;28;20021;-69
2023/03/16 04:02:10;;;;;;;19.83;7.15;;;;;;;3.61;100.00;101420.97;5073265;28;20024;-68
2023/03/16 04:04:36;;;;;;;18.90;7.40;;;;;;;3.60;100.00;101419.22;5071721;28;20044;-68
2023/03/16 04:07:02;;;;;;;19.48;7.50;;;;;;;3.62;100.00;101414.94;5072608;28;20032;-68
2023/03/16 04:09:28;;;;;;;19.77;7.20;;;;;;;3.61;100.00;101410.50;5071159;28;20675;-69
2023/03/16 04:11:56;;;;;;;19.95;7.25;;;;;;;3.59;100.00;101402.59;5071852;28;20491;-68
2023/03/16 04:14:22;;;;;;;19.15;7.05;;;;;;;3.59;100.00;101407.84;5072474;28;20364;-69
2023/03/16 04:16:47;;;;;;;19.10;6.93;;;;;;;3.58;100.00;101405.16;5071985;28;20024;-68
2023/03/16 04:19:12;;;;;;;18.75;7.10;;;;;;;3.58;100.00;101395.63;5072788;28;20028;-69
2023/03/16 04:21:38;;;;;;;19.23;7.28;;;;;;;3.62;100.00;101397.50;5072295;28;20379;-68
2023/03/16 04:24:04;;;;;;;19.83;6.93;;;;;;;3.60;100.00;101398.28;5067411;28;20048;-68
2023/03/16 04:26:30;;;;;;;19.83;6.90;;;;;;;3.61;100.00;101405.28;5072318;28;20033;-68
2023/03/16 04:28:55;;;;;;;19.50;7.05;;;;;;;3.63;100.00;101403.66;5071961;28;20029;-68
2023/03/16 04:31:21;;;;;;;18.98;6.80;;;;;;;3.61;100.00;101400.06;5071874;28;20028;-69
2023/03/16 04:33:46;;;;;;;19.55;6.95;;;;;;;3.62;100.00;101401.84;5071271;28;20111;-68
2023/03/16 04:36:12;;;;;;;18.60;6.50;;;;;;;3.65;100.00;101396.75;5070715;28;20032;-68
2023/03/16 04:38:37;;;;;;;19.63;6.57;;;;;;;3.67;100.00;101403.84;5071305;28;20037;-68
2023/03/16 04:41:04;;;;;;;19.45;6.70;;;;;;;3.70;100.00;101399.53;5072278;28;20766;-69
2023/03/16 04:43:33;;;;;;;18.40;6.13;;;;;;;3.71;100.00;101399.59;5071820;28;20045;-69
2023/03/16 04:46:00;;;;;;;19.30;6.57;;;;;;;3.72;100.00;101397.91;5071788;28;20039;-68
2023/03/16 04:48:26;;;;;;;19.50;6.47;;;;;;;3.73;100.00;101392.72;5072044;28;20077;-68
2023/03/16 04:50:51;;;;;;;19.10;6.55;;;;;;;3.72;100.00;101395.28;5071754;28;20078;-68
2023/03/16 04:53:17;;;;;;;19.58;6.70;;;;;;;3.72;100.00;101388.31;5070954;28;20021;-69
2023/03/16 04:55:44;;;;;;;19.85;6.80;;;;;;;3.67;100.00;101395.97;5071764;28;20043;-68
2023/03/16 04:58:09;;;;;;;19.48;6.40;;;;;;;3.63;100.00;101393.19;5071676;28;20024;-68
2023/03/16 05:00:35;;;;;;;20.38;6.90;;;;;;;3.54;100.00;101392.78;5071556;28;20033;-68
2023/03/16 05:03:01;;;;;;;19.13;6.63;;;;;;;3.45;100.00;101382.84;5070603;28;20040;-69
2023/03/16 05:05:27;;;;;;;17.92;6.38;;;;;;;3.41;100.00;101388.78;5032584;28;1118622;-69
2023/03/16 05:07:52;;;;;;;18.95;6.70;;;;;;;3.36;100.00;101382.47;5072802;28;20044;-68
2023/03/16 05:10:18;;;;;;;19.40;6.50;;;;;;;3.34;100.00;101384.13;5072716;28;20031;-71
2023/03/16 05:12:44;;;;;;;20.42;6.75;;;;;;;3.33;100.00;101378.00;5072761;28;20139;-69
2023/03/16 05:15:10;;;;;;;19.23;6.45;;;;;;;3.35;100.00;101381.56;5072633;28;20032;-68
2023/03/16 05:17:35;;;;;;;20.08;6.40;;;;;;;3.37;100.00;101373.81;5075979;28;20387;-75
2023/03/16 05:20:05;;;;;;;18.67;6.22;;;;;;;3.42;100.00;101367.94;5075405;28;20054;-69
2023/03/16 05:22:30;;;;;;;18.73;6.50;;;;;;;3.43;100.00;101364.47;5076465;28;20032;-71
2023/03/16 05:24:55;;;;;;;19.52;6.78;;;;;;;3.47;100.00;101375.97;5075985;28;20055;-70
2023/03/16 05:27:21;;;;;;;19.13;6.32;;;;;;;3.46;100.00;101371.56;5075919;28;20025;-69
2023/03/16 05:29:47;;;;;;;18.67;6.40;;;;;;;3.47;100.00;101362.91;5076093;28;20062;-77
2023/03/16 05:32:12;;;;;;;20.55;6.35;;;;;;;3.51;100.00;101370.03;5075893;28;20028;-79
2023/03/16 05:34:38;;;;;;;18.80;6.57;;;;;;;3.52;100.00;101363.97;5075137;28;20506;-69
2023/03/16 05:37:03;;;;;;;19.25;6.18;;;;;;;3.58;100.00;101363.31;5075867;28;20044;-72
2023/03/16 05:39:29;;;;;;;19.60;6.40;;;;;;;3.62;100.00;101366.13;5075418;28;20153;-68
2023/03/16 05:41:56;;;;;;;18.73;5.90;;;;;;;3.66;100.00;101356.69;5075976;28;20059;-69
2023/03/16 05:44:21;;;;;;;20.80;6.60;;;;;;;3.68;100.00;101355.03;5076181;28;20025;-78
2023/03/16 05:46:46;;;;;;;18.55;6.15;;;;;;;3.69;100.00;101350.72;5074862;28;20040;-69
2023/03/16 05:49:12;;;;;;;18.30;6.15;;;;;;;3.75;100.00;101354.44;5075150;28;20475;-68
2023/03/16 05:51:37;;;;;;;17.95;5.43;;;;;;;3.76;100.00;101345.78;5075699;28;20062;-72
2023/03/16 05:54:03;;;;;;;18.92;6.13;;;;;;;3.79;100.00;101348.50;5075667;28;20031;-69
2023/03/16 05:56:29;;;;;;;18.40;5.93;;;;;;;3.77;100.00;101350.19;5075269;28;20036;-68
2023/03/16 05:58:55;;;;;;;17.92;6.03;;;;;;;3.78;100.00;101335.38;5075510;28;20123;-81
2023/03/16 06:01:22;;;;;;;19.35;6.10;;;;;;;3.78;100.00;101349.34;5074572;28;20025;-69
2023/03/16 06:03:48;;;;;;;18.10;5.93;;;;;;;3.79;100.00;101343.28;5074823;28;20051;-68
2023/03/16 06:06:15;;;;;;;17.50;5.88;;;;;;;3.86;100.00;101344.44;5075355;28;20044;-69
2023/03/16 06:08:41;;;;;;;18.50;6.00;;;;;;;3.87;100.00;101354.03;5075274;28;20444;-69
2023/03/16 06:11:07;;;;;;;18.15;5.97;;;;;;;3.92;100.00;101352.50;5075099;28;20052;-68
2023/03/16 06:13:33;;;;;;;20.13;6.35;;;;;;;3.96;100.00;101348.28;5075375;28;20067;-80
2023/03/16 06:15:58;;;;;;;18.55;5.90;;;;;;;3.98;100.00;101349.25;5074245;28;20039;-68
2023/03/16 06:18:24;;;;;;;19.52;6.07;;;;;;;4.00;100.00;101347.56;5075449;28;20036;-69
2023/03/16 06:20:49;;;;;;;19.13;6.20;;;;;;;4.04;100.00;101346.00;5074704;28;20088;-68
2023/03/16 06:23:15;;;;;;;18.52;5.65;;;;;;;4.09;100.00;101357.50;5074837;28;20471;-68
2023/03/16 06:25:40;;;;;;;18.17;5.72;;;;;;;4.10;100.00;101343.59;5075071;28;20108;-69
2023/03/16 06:28:06;;;;;;;19.00;6.20;;;;;;;4.08;100.00;101342.63;5073043;28;20036;-69
2023/03/16 06:30:32;;;;;;;18.23;6.07;;;;;;;3.97;100.00;101352.69;5074663;28;20486;-69
2023/03/16 06:32:58;;;;;;;19.33;6.50;;;;;;;3.80;100.00;101352.00;5074613;28;20029;-69
2023/03/16 06:35:24;;;;;;;21.50;6.53;;;;;;;3.64;100.00;101353.09;5074444;28;20072;-69
2023/03/16 06:37:50;;;;;;;19.65;6.60;;;;;;;3.49;100.00;101346.44;5072478;28;20036;-72
2023/03/16 06:40:16;;;;;;;19.38;6.70;;;;;;;3.40;100.00;101340.81;5069568;28;20025;-72
2023/03/16 06:42:41;;;;;;;19.40;6.75;;;;;;;3.35;100.00;101338.84;5072805;28;20074;-71
2023/03/16 06:45:07;;;;;;;19.73;6.90;;;;;;;3.31;100.00;101340.47;5073625;28;20032;-71
2023/03/16 06:47:32;;;;;;;20.67;7.35;;;;;;;3.26;100.00;101329.81;5071386;28;20047;-72
2023/03/16 06:49:58;;;;;;;20.50;7.03;;;;;;;3.29;100.00;101323.78;5072374;28;20037;-71
2023/03/16 06:52:23;;;;;;;19.85;7.10;;;;;;;3.31;100.00;101327.38;5070484;28;20067;-71
2023/03/16 06:54:48;;;;;;;20.00;6.88;;;;;;;3.31;100.00;101332.63;5069995;28;20060;-71
2023/03/16 06:57:14;;;;;;;21.67;7.13;;;;;;;3.33;100.00;101338.78;5067309;28;20044;-71
2023/03/16 06:59:39;;;;;;;19.20;6.78;;;;;;;3.35;100.00;101338.84;5070513;28;20380;-68
2023/03/16 07:02:05;;;;;;;20.23;6.90;;;;;;;3.36;100.00;101338.91;5073056;28;20424;-70
2023/03/16 07:04:31;;;;;;;20.55;7.00;;;;;;;3.39;100.00;101333.81;5065168;28;20052;-71
2023/03/16 07:06:56;;;;;;;20.67;6.90;;;;;;;3.42;100.00;101336.56;5068706;28;20040;-72
2023/03/16 07:09:22;;;;;;;19.42;6.50;;;;;;;3.54;100.00;101327.41;5074780;28;20041;-71
2023/03/16 07:11:47;;;;;;;20.10;6.65;;;;;;;3.63;100.00;101333.03;5071702;28;20059;-70
2023/03/16 07:14:13;;;;;;;19.45;6.53;;;;;;;3.65;100.00;101329.63;5075280;28;20028;-71
2023/03/16 07:16:38;;;;;;;19.23;6.35;;;;;;;3.72;100.00;101325.56;5066529;28;20036;-72
2023/03/16 07:19:03;;;;;;;19.40;6.32;;;;;;;3.79;100.00;101317.13;5059154;28;20035;-71
2023/03/16 07:21:30;;;;;;;19.13;6.32;;;;;;;3.87;100.00;101317.41;5074091;28;20064;-71
2023/03/16 07:23:56;;;;;;;18.80;6.25;;;;;;;3.98;100.00;101308.28;5070959;28;20028;-69
2023/03/16 07:26:21;;;;;;;19.15;5.65;;;;;;;4.10;100.00;101310.47;5068908;28;20028;-72
2023/03/16 07:28:47;;;;;;;18.38;6.15;;;;;;;4.15;100.00;101311.53;5068575;28;20025;-72
2023/03/16 07:31:13;;;;;;;19.77;5.80;;;;;;;4.28;100.00;101304.13;5069734;28;20068;-71
2023/03/16 07:33:39;;;;;;;18.17;5.88;;;;;;;4.40;100.00;101312.47;5065383;28;20426;-70
2023/03/16 07:36:04;;;;;;;20.48;6.65;;;;;;;4.53;100.00;101317.31;5064181;28;20029;-70
2023/03/16 07:38:31;;;;;;;18.60;5.70;;;;;;;4.59;100.00;101316.66;5065891;28;20033;-71
2023/03/16 07:40:57;;;;;;;17.75;5.72;;;;;;;4.63;100.00;101317.63;5063727;28;20783;-70
2023/03/16 07:43:23;;;;;;;18.45;5.88;;;;;;;4.71;100.00;101317.06;5067053;28;20499;-70
2023/03/16 07:45:50;;;;;;;18.50;5.85;;;;;;;4.79;100.00;101304.28;5064235;28;20104;-72
2023/03/16 07:48:16;;;;;;;17.65;5.63;;;;;;;4.87;100.00;101315.00;5068470;28;20072;-69
2023/03/16 07:50:41;;;;;;;18.63;5.45;;;;;;;4.94;100.00;101305.66;5068998;28;20402;-70
2023/03/16 07:53:07;;;;;;;18.27;5.75;;;;;;;5.00;100.00;101309.34;5064394;28;20021;-68
2023/03/16 07:55:35;;;;;;;17.75;5.43;;;;;;;5.07;100.00;101311.34;5063751;28;20087;-68
2023/03/16 07:58:01;;;;;;;19.88;5.65;;;;;;;5.15;100.00;101311.59;5071277;28;20028;-70
2023/03/16 08:00:26;;;;;;;18.50;5.50;;;;;;;5.20;100.00;101309.16;5078026;28;20372;-68
2023/03/16 08:02:52;;;;;;;18.10;5.30;;;;;;;5.27;100.00;101312.84;5068427;28;20497;-70
2023/03/16 08:05:18;;;;;;;18.52;5.53;;;;;;;5.34;100.00;101314.84;5071569;28;20091;-70
2023/03/16 08:07:44;;;;;;;18.60;5.30;;;;;;;5.41;100.00;101309.84;5070480;28;20447;-70
2023/03/16 08:10:10;;;;;;;17.17;5.32;;;;;;;5.55;100.00;101317.28;5067206;28;20032;-70
2023/03/16 08:12:35;;;;;;;18.83;5.60;;;;;;;5.61;100.00;101312.25;5064702;28;20051;-71
2023/03/16 08:15:01;;;;;;;18.20;5.50;;;;;;;5.68;100.00;101306.34;5067148;28;20064;-68
2023/03/16 08:17:26;;;;;;;18.13;5.40;;;;;;;5.74;100.00;101316.16;5071642;28;20024;-69
2023/03/16 08:19:52;;;;;;;18.27;5.60;;;;;;;5.81;100.00;101323.38;5073679;28;20528;-69
2023/03/16 08:22:17;;;;;;;18.35;5.55;;;;;;;5.93;100.00;101321.13;5072431;28;20108;-69
2023/03/16 08:24:43;;;;;;;18.80;5.63;;;;;;;6.07;100.00;101318.03;5068407;28;20033;-71
2023/03/16 08:27:08;;;;;;;18.50;5.50;;;;;;;6.14;100.00;101322.63;5068804;28;20548;-70
2023/03/16 08:29:34;;;;;;;17.13;5.32;;;;;;;6.16;100.00;101326.22;5064490;28;20064;-70
2023/03/16 08:31:59;;;;;;;19.35;5.60;;;;;;;6.18;100.00;101321.91;5072253;28;20081;-70
2023/03/16 08:34:26;;;;;;;17.85;5.50;;;;;;;6.18;100.00;101318.38;5068758;28;20029;-77
2023/03/16 08:36:52;;;;;;;18.45;5.78;;;;;;;6.19;100.00;101322.78;5071624;28;20036;-76
2023/03/16 08:39:18;;;;;;;18.60;5.88;;;;;;;6.22;100.00;101325.53;5065494;28;20029;-76
2023/03/16 08:41:44;;;;;;;18.55;5.75;;;;;;;6.26;100.00;101325.66;5065680;28;20029;-74
2023/03/16 08:44:10;;;;;;;18.00;5.32;;;;;;;6.28;100.00;101323.06;5073752;28;20020;-72
2023/03/16 08:46:35;;;;;;;18.42;5.45;;;;;;;6.22;100.00;101317.63;5065004;28;20107;-75
2023/03/16 08:49:01;;;;;;;17.77;5.53;;;;;;;6.25;100.00;101310.72;5068723;28;20029;-75
2023/03/16 08:51:28;;;;;;;18.35;5.50;;;;;;;6.30;100.00;101318.75;5070554;28;20025;-70
2023/03/16 08:53:54;;;;;;;17.15;5.20;;;;;;;6.35;100.00;101319.78;5074885;28;20085;-70
2023/03/16 08:56:20;;;;;;;18.35;5.50;;;;;;;6.38;100.00;101311.09;5071151;28;20029;-71
2023/03/16 08:58:46;;;;;;;17.60;5.30;;;;;;;6.49;100.00;101307.03;5074485;28;20182;-71
2023/03/16 09:01:13;;;;;;;18.30;5.25;;;;;;;6.56;100.00;101298.47;5074716;28;20470;-72
2023/03/16 09:03:39;;;;;;;18.48;5.63;;;;;;;6.66;100.00;101290.88;5073249;28;20592;-72
2023/03/16 09:06:09;;;;;;;17.38;5.47;;;;;;;6.88;100.00;101292.34;5075673;28;20048;-68
2023/03/16 09:08:37;;;;;;;18.27;5.30;;;;;;;7.10;100.00;101291.16;5075811;28;20040;-69
2023/03/16 09:11:06;;;;;;;18.17;5.13;;;;;;;7.16;100.00;101296.56;5075728;28;20040;-68
2023/03/16 09:13:32;;;;;;;17.58;5.05;;;;;;;7.21;100.00;101302.84;5075438;28;20024;-73
2023/03/16 09:15:58;;;;;;;19.08;5.07;;;;;;;7.28;100.00;101291.63;5076032;28;20037;-74
2023/03/16 09:18:26;;;;;;;16.65;5.07;;;;;;;7.58;100.00;101292.31;5075646;28;20395;-75
2023/03/16 09:21:03;;;;;;;17.88;5.40;;;;;;;7.92;100.00;101290.47;5076008;28;20046;-69
2023/03/16 09:23:29;;;;;;;16.30;4.90;;;;;;;8.10;100.00;101285.59;5071835;28;20021;-74
2023/03/16 09:26:00;;;;;;;16.70;4.72;;;;;;;8.32;100.00;101289.56;5075265;28;20029;-72
2023/03/16 09:28:27;;;;;;;16.80;4.93;;;;;;;8.36;100.00;101286.16;5075245;28;20060;-76
2023/03/16 09:30:57;;;;;;;17.90;4.95;;;;;;;8.37;97.59;101287.94;5075429;28;20116;-71
2023/03/16 09:33:24;;;;;;;17.52;4.90;;;;;;;8.29;94.25;101286.88;5075413;28;20025;-72
2023/03/16 09:35:50;;;;;;;15.82;4.72;;;;;;;8.23;92.05;101281.50;5075409;28;20028;-70
2023/03/16 09:38:17;;;;;;;16.60;4.55;;;;;;;8.22;91.93;101274.44;5075708;28;20029;-70
2023/03/16 09:40:44;;;;;;;15.15;4.60;;;;;;;8.25;97.79;101277.13;5075450;28;20418;-70
2023/03/16 09:43:18;;;;;;;16.25;4.60;;;;;;;8.26;93.14;101278.91;5073953;28;20480;-69
2023/03/16 09:46:10;;;;;;;18.08;5.13;;;;;;;8.38;89.34;101284.41;5074817;28;20111;-70
2023/03/16 09:48:38;;;;;;;16.42;4.53;;;;;;;9.29;80.03;101284.34;5067716;28;20048;-71
2023/03/16 09:51:07;;;;;;;16.42;4.60;;;;;;;10.07;70.70;101288.16;5075265;28;20064;-73
2023/03/16 09:53:38;;;;;;;14.02;4.10;;;;;;;10.93;66.91;101282.16;5075093;28;20471;-72
2023/03/16 09:56:19;;;;;;;15.13;4.10;;;;;;;10.84;63.62;101276.78;5069253;28;20403;-72
2023/03/16 09:58:44;;;;;;;15.27;4.13;;;;;;;10.59;63.14;101276.53;5070204;28;20421;-81
2023/03/16 10:01:47;;;;;;;15.00;4.40;;;;;;;10.36;62.87;101274.47;5075267;28;20029;-76
2023/03/16 10:04:39;;;;;;;16.02;4.20;;;;;;;10.33;63.73;101268.25;5070346;28;21583;-84
2023/03/16 10:07:37;;;;;;;16.05;4.30;;;;;;;10.51;61.78;101257.03;5066269;28;20047;-76
2023/03/16 10:10:40;;;;;;;16.05;4.45;;;;;;;10.75;59.47;101257.28;5068808;28;20425;-78
2023/03/16 10:13:12;;;;;;;;;;;;;;;11.18;58.43;101253.28;5070170;28;20029;-78
2023/03/16 10:15:39;;;;;;;12.13;3.70;;;;;;;11.61;56.30;101266.84;5074715;28;20361;-78
2023/03/16 10:18:26;;;;;;;16.63;4.10;;;;;;;12.34;53.30;101242.50;5068636;28;20037;-78
2023/03/16 10:20:54;;;;;;;12.90;3.80;;;;;;;12.68;50.74;101234.66;5068731;28;20024;-76
2023/03/16 10:23:23;;;;;;;14.95;4.00;;;;;;;13.11;50.58;101243.56;5066653;28;20039;-74
2023/03/16 10:25:51;;;;;;;14.50;3.92;;;;;;;12.87;49.74;101253.25;5070497;28;20027;-69
2023/03/16 10:28:22;;;;;;;14.70;3.78;;;;;;;12.67;50.55;101247.94;5070314;28;20032;-71
2023/03/16 10:30:49;;;;;;;13.15;3.92;;;;;;;12.96;49.12;101233.78;5065792;28;20028;-77
2023/03/16 10:33:35;;;;;;;12.05;3.60;;;;;;;13.35;49.50;101247.97;5067808;28;20020;-81
2023/03/16 10:36:28;;;;;;;14.07;3.92;;;;;;;13.30;50.41;101240.00;5067766;28;20036;-80
2023/03/16 10:38:56;;;;;;;;;;;;;;;13.26;48.36;101230.25;5067860;28;20025;-78
2023/03/16 10:41:31;;;;;;;13.88;3.80;;;;;;;12.83;48.67;101236.44;5069214;28;19913;-76
2023/03/16 10:44:06;;;;;;;13.38;3.50;;;;;;;12.81;48.88;101235.53;5065345;28;20471;-76
2023/03/16 10:46:38;;;;;;;15.35;3.60;;;;;;;13.68;47.21;101220.47;5068312;28;20032;-76
2023/03/16 10:49:04;;;;;;;12.48;3.83;;;;;;;13.94;46.41;101225.72;5067225;28;20549;-76
2023/03/16 10:51:32;;;;;;;13.07;3.80;;;;;;;14.23;47.77;101230.03;5073025;28;20052;-77
2023/03/16 10:54:09;;;;;;;12.60;3.50;;;;;;;14.28;45.69;101235.31;5070235;28;20021;-75
2023/03/16 10:56:36;;;;;;;13.85;3.60;;;;;;;14.17;46.78;101218.53;5068344;28;20033;-73
2023/03/16 10:59:12;;;;;;;12.63;3.50;;;;;;;13.97;46.45;101222.19;5079270;28;20516;-74
2023/03/16 11:01:37;;;;;;;12.02;3.90;;;;;;;13.56;46.58;101218.75;5069560;28;20028;-73
2023/03/16 11:04:14;;;;;;;12.57;3.70;;;;;;;13.32;46.83;101205.47;5073141;28;20085;-74
2023/03/16 11:06:56;;;;;;;13.70;3.92;;;;;;;13.17;49.32;101204.59;5073181;28;20045;-76
2023/03/16 11:09:31;;;;;;;14.57;3.63;;;;;;;13.81;49.12;101208.06;5073255;28;20067;-72
2023/03/16 11:11:58;;;;;;;14.02;3.75;;;;;;;14.07;45.90;101193.78;5073288;28;20068;-73
2023/03/16 11:14:27;;;;;;;10.55;3.17;;;;;;;13.97;44.57;101200.03;5072947;28;20096;-74
2023/03/16 11:17:08;;;;;;;13.18;3.20;;;;;;;13.74;46.18;101187.72;5073020;28;20029;-73
2023/03/16 11:19:45;;;;;;;11.80;3.35;;;;;;;14.20;46.27;101183.97;5069809;28;20074;-72